sensor_id;sensor_type;location;lat;lon;timestamp;temperature;humidity
42989;DHT22;28622;43.716;20.668;2023-04-01T00:00:19;15.70;80.40
42989;DHT22;28622;43.716;20.668;2023-04-01T00:02:45;15.70;79.80
42989;DHT22;28622;43.716;20.668;2023-04-01T00:05:11;15.70;79.30
42989;DHT22;28622;43.716;20.668;2023-04-01T00:07:38;15.80;79.70
42989;DHT22;28622;43.716;20.668;2023-04-01T00:10:06;15.80;79.30
42989;DHT22;28622;43.716;20.668;2023-04-01T00:12:32;15.80;79.80
42989;DHT22;28622;43.716;20.668;2023-04-01T00:14:58;15.80;79.50
42989;DHT22;28622;43.716;20.668;2023-04-01T00:17:24;15.80;78.80
42989;DHT22;28622;43.716;20.668;2023-04-01T00:19:49;15.80;80.00
42989;DHT22;28622;43.716;20.668;2023-04-01T00:22:15;15.70;80.40
42989;DHT22;28622;43.716;20.668;2023-04-01T00:24:41;15.70;79.90
42989;DHT22;28622;43.716;20.668;2023-04-01T00:27:07;15.60;80.20
42989;DHT22;28622;43.716;20.668;2023-04-01T00:29:34;15.60;81.20
42989;DHT22;28622;43.716;20.668;2023-04-01T00:32:00;15.60;81.40
42989;DHT22;28622;43.716;20.668;2023-04-01T00:34:26;15.60;82.20
42989;DHT22;28622;43.716;20.668;2023-04-01T00:36:52;15.60;81.80
42989;DHT22;28622;43.716;20.668;2023-04-01T00:39:22;15.50;83.70
42989;DHT22;28622;43.716;20.668;2023-04-01T00:41:48;15.60;82.80
42989;DHT22;28622;43.716;20.668;2023-04-01T00:44:24;15.50;82.00
42989;DHT22;28622;43.716;20.668;2023-04-01T00:46:51;15.50;84.60
42989;DHT22;28622;43.716;20.668;2023-04-01T00:49:21;15.40;83.50
42989;DHT22;28622;43.716;20.668;2023-04-01T00:51:51;15.40;83.10
42989;DHT22;28622;43.716;20.668;2023-04-01T00:54:19;15.40;83.10
42989;DHT22;28622;43.716;20.668;2023-04-01T00:56:52;15.40;84.00
42989;DHT22;28622;43.716;20.668;2023-04-01T00:59:32;15.30;84.50
42989;DHT22;28622;43.716;20.668;2023-04-01T01:02:01;15.20;84.60
42989;DHT22;28622;43.716;20.668;2023-04-01T01:04:30;15.20;84.50
42989;DHT22;28622;43.716;20.668;2023-04-01T01:07:45;15.20;84.80
42989;DHT22;28622;43.716;20.668;2023-04-01T01:10:26;15.10;85.30
42989;DHT22;28622;43.716;20.668;2023-04-01T01:13:26;15.20;85.80
42989;DHT22;28622;43.716;20.668;2023-04-01T01:19:24;15.10;89.30
42989;DHT22;28622;43.716;20.668;2023-04-01T01:27:40;14.80;86.00
42989;DHT22;28622;43.716;20.668;2023-04-01T01:30:42;14.80;85.10
42989;DHT22;28622;43.716;20.668;2023-04-01T01:33:25;14.90;83.80
42989;DHT22;28622;43.716;20.668;2023-04-01T01:35:57;14.90;83.30
42989;DHT22;28622;43.716;20.668;2023-04-01T01:38:28;15.00;83.20
42989;DHT22;28622;43.716;20.668;2023-04-01T01:40:56;15.00;81.80
42989;DHT22;28622;43.716;20.668;2023-04-01T01:43:26;15.10;81.50
42989;DHT22;28622;43.716;20.668;2023-04-01T01:45:57;15.10;81.20
42989;DHT22;28622;43.716;20.668;2023-04-01T01:48:24;15.10;80.70
42989;DHT22;28622;43.716;20.668;2023-04-01T01:50:52;15.20;80.40
42989;DHT22;28622;43.716;20.668;2023-04-01T01:53:18;15.20;79.80
42989;DHT22;28622;43.716;20.668;2023-04-01T01:55:46;15.30;80.00
42989;DHT22;28622;43.716;20.668;2023-04-01T02:00:50;15.30;80.10
42989;DHT22;28622;43.716;20.668;2023-04-01T02:03:17;15.30;80.60
42989;DHT22;28622;43.716;20.668;2023-04-01T02:05:45;15.30;81.30
42989;DHT22;28622;43.716;20.668;2023-04-01T02:08:25;15.30;82.20
42989;DHT22;28622;43.716;20.668;2023-04-01T02:11:01;15.20;82.60
42989;DHT22;28622;43.716;20.668;2023-04-01T02:13:52;15.20;82.60
42989;DHT22;28622;43.716;20.668;2023-04-01T02:16:28;15.20;82.40
42989;DHT22;28622;43.716;20.668;2023-04-01T02:18:56;15.20;82.20
42989;DHT22;28622;43.716;20.668;2023-04-01T02:21:24;15.30;82.00
42989;DHT22;28622;43.716;20.668;2023-04-01T02:23:52;15.30;82.10
42989;DHT22;28622;43.716;20.668;2023-04-01T02:26:19;15.30;81.40
42989;DHT22;28622;43.716;20.668;2023-04-01T02:28:46;15.40;81.20
42989;DHT22;28622;43.716;20.668;2023-04-01T02:31:14;15.40;81.60
42989;DHT22;28622;43.716;20.668;2023-04-01T02:33:41;15.30;82.10
42989;DHT22;28622;43.716;20.668;2023-04-01T02:36:12;15.30;82.40
42989;DHT22;28622;43.716;20.668;2023-04-01T02:38:38;15.30;83.20
42989;DHT22;28622;43.716;20.668;2023-04-01T02:41:05;15.30;83.50
42989;DHT22;28622;43.716;20.668;2023-04-01T02:43:31;15.30;84.10
42989;DHT22;28622;43.716;20.668;2023-04-01T02:45:57;15.20;84.30
42989;DHT22;28622;43.716;20.668;2023-04-01T02:48:23;15.20;84.20
42989;DHT22;28622;43.716;20.668;2023-04-01T02:50:49;15.20;84.20
42989;DHT22;28622;43.716;20.668;2023-04-01T02:53:15;15.20;83.90
42989;DHT22;28622;43.716;20.668;2023-04-01T02:55:41;15.30;84.10
42989;DHT22;28622;43.716;20.668;2023-04-01T02:58:07;15.20;83.80
42989;DHT22;28622;43.716;20.668;2023-04-01T03:00:33;15.20;83.70
42989;DHT22;28622;43.716;20.668;2023-04-01T03:02:59;15.30;84.60
42989;DHT22;28622;43.716;20.668;2023-04-01T03:05:25;15.30;85.10
42989;DHT22;28622;43.716;20.668;2023-04-01T03:07:51;15.30;84.60
42989;DHT22;28622;43.716;20.668;2023-04-01T03:10:16;15.20;84.20
42989;DHT22;28622;43.716;20.668;2023-04-01T03:12:42;15.20;84.80
42989;DHT22;28622;43.716;20.668;2023-04-01T03:15:11;15.20;84.60
42989;DHT22;28622;43.716;20.668;2023-04-01T03:17:38;15.20;84.90
42989;DHT22;28622;43.716;20.668;2023-04-01T03:20:04;15.20;85.00
42989;DHT22;28622;43.716;20.668;2023-04-01T03:22:31;15.20;85.00
42989;DHT22;28622;43.716;20.668;2023-04-01T03:24:57;15.20;85.00
42989;DHT22;28622;43.716;20.668;2023-04-01T03:27:22;15.20;85.40
42989;DHT22;28622;43.716;20.668;2023-04-01T03:29:48;15.20;87.10
42989;DHT22;28622;43.716;20.668;2023-04-01T03:32:14;15.10;88.10
42989;DHT22;28622;43.716;20.668;2023-04-01T03:34:40;15.10;89.30
42989;DHT22;28622;43.716;20.668;2023-04-01T03:37:06;14.90;91.00
42989;DHT22;28622;43.716;20.668;2023-04-01T03:39:31;14.80;91.50
42989;DHT22;28622;43.716;20.668;2023-04-01T03:41:57;14.70;92.60
42989;DHT22;28622;43.716;20.668;2023-04-01T03:44:23;14.60;92.80
42989;DHT22;28622;43.716;20.668;2023-04-01T03:46:49;14.50;93.20
42989;DHT22;28622;43.716;20.668;2023-04-01T03:49:14;14.30;93.80
42989;DHT22;28622;43.716;20.668;2023-04-01T03:51:42;14.20;94.40
42989;DHT22;28622;43.716;20.668;2023-04-01T03:54:09;14.10;94.80
42989;DHT22;28622;43.716;20.668;2023-04-01T03:56:35;14.20;94.90
42989;DHT22;28622;43.716;20.668;2023-04-01T03:59:03;14.10;96.00
42989;DHT22;28622;43.716;20.668;2023-04-01T04:01:29;14.00;97.00
42989;DHT22;28622;43.716;20.668;2023-04-01T04:03:55;14.00;97.10
42989;DHT22;28622;43.716;20.668;2023-04-01T04:06:21;14.00;98.00
42989;DHT22;28622;43.716;20.668;2023-04-01T04:08:48;14.00;97.90
42989;DHT22;28622;43.716;20.668;2023-04-01T04:11:15;14.00;98.00
42989;DHT22;28622;43.716;20.668;2023-04-01T04:13:41;13.90;98.30
42989;DHT22;28622;43.716;20.668;2023-04-01T04:16:07;13.90;98.80
42989;DHT22;28622;43.716;20.668;2023-04-01T04:18:34;13.90;99.90
42989;DHT22;28622;43.716;20.668;2023-04-01T04:21:00;13.80;99.90
42989;DHT22;28622;43.716;20.668;2023-04-01T04:23:25;13.70;99.90
42989;DHT22;28622;43.716;20.668;2023-04-01T04:25:59;13.70;99.90
42989;DHT22;28622;43.716;20.668;2023-04-01T04:28:26;13.60;99.90
42989;DHT22;28622;43.716;20.668;2023-04-01T04:30:52;13.60;99.90
42989;DHT22;28622;43.716;20.668;2023-04-01T04:33:18;13.50;99.90
42989;DHT22;28622;43.716;20.668;2023-04-01T04:35:44;13.50;99.90
42989;DHT22;28622;43.716;20.668;2023-04-01T04:38:10;13.40;99.90
42989;DHT22;28622;43.716;20.668;2023-04-01T04:40:37;13.30;99.90
42989;DHT22;28622;43.716;20.668;2023-04-01T04:43:03;13.20;99.90
42989;DHT22;28622;43.716;20.668;2023-04-01T04:45:30;13.30;99.90
42989;DHT22;28622;43.716;20.668;2023-04-01T04:47:56;13.40;99.90
42989;DHT22;28622;43.716;20.668;2023-04-01T04:50:22;13.30;99.90
42989;DHT22;28622;43.716;20.668;2023-04-01T04:52:48;13.30;99.90
42989;DHT22;28622;43.716;20.668;2023-04-01T04:55:14;13.40;99.90
42989;DHT22;28622;43.716;20.668;2023-04-01T04:57:41;13.30;99.90
42989;DHT22;28622;43.716;20.668;2023-04-01T05:00:07;13.30;99.90
42989;DHT22;28622;43.716;20.668;2023-04-01T05:02:33;13.30;99.90
42989;DHT22;28622;43.716;20.668;2023-04-01T05:04:59;13.20;99.90
42989;DHT22;28622;43.716;20.668;2023-04-01T05:07:25;13.20;99.90
42989;DHT22;28622;43.716;20.668;2023-04-01T05:09:51;13.10;99.90
42989;DHT22;28622;43.716;20.668;2023-04-01T05:12:17;13.10;99.90
42989;DHT22;28622;43.716;20.668;2023-04-01T05:14:43;13.00;99.90
42989;DHT22;28622;43.716;20.668;2023-04-01T05:17:10;12.90;99.90
42989;DHT22;28622;43.716;20.668;2023-04-01T05:19:36;12.80;99.90
42989;DHT22;28622;43.716;20.668;2023-04-01T05:22:02;12.70;99.90
42989;DHT22;28622;43.716;20.668;2023-04-01T05:24:27;12.40;99.90
42989;DHT22;28622;43.716;20.668;2023-04-01T05:26:53;12.30;99.90
42989;DHT22;28622;43.716;20.668;2023-04-01T05:29:19;12.30;99.90
42989;DHT22;28622;43.716;20.668;2023-04-01T05:31:46;12.20;99.90
42989;DHT22;28622;43.716;20.668;2023-04-01T05:34:13;12.20;99.90
42989;DHT22;28622;43.716;20.668;2023-04-01T05:36:38;12.30;99.90
42989;DHT22;28622;43.716;20.668;2023-04-01T05:39:05;12.30;99.90
42989;DHT22;28622;43.716;20.668;2023-04-01T05:41:31;12.30;99.90
42989;DHT22;28622;43.716;20.668;2023-04-01T05:43:56;12.20;99.90
42989;DHT22;28622;43.716;20.668;2023-04-01T05:46:22;12.20;99.90
42989;DHT22;28622;43.716;20.668;2023-04-01T05:48:48;12.10;99.90
42989;DHT22;28622;43.716;20.668;2023-04-01T05:51:14;12.00;99.90
42989;DHT22;28622;43.716;20.668;2023-04-01T05:53:40;11.90;99.90
42989;DHT22;28622;43.716;20.668;2023-04-01T05:56:06;12.00;99.90
42989;DHT22;28622;43.716;20.668;2023-04-01T05:58:35;12.00;99.90
42989;DHT22;28622;43.716;20.668;2023-04-01T06:01:06;12.10;99.90
42989;DHT22;28622;43.716;20.668;2023-04-01T06:03:33;12.10;99.90
42989;DHT22;28622;43.716;20.668;2023-04-01T06:05:59;12.20;99.90
42989;DHT22;28622;43.716;20.668;2023-04-01T06:08:27;12.30;99.90
42989;DHT22;28622;43.716;20.668;2023-04-01T06:14:18;12.30;99.90
42989;DHT22;28622;43.716;20.668;2023-04-01T06:19:50;12.30;99.90
42989;DHT22;28622;43.716;20.668;2023-04-01T06:27:51;12.30;99.90
42989;DHT22;28622;43.716;20.668;2023-04-01T06:33:13;12.40;99.90
42989;DHT22;28622;43.716;20.668;2023-04-01T06:35:59;12.30;99.90
42989;DHT22;28622;43.716;20.668;2023-04-01T06:39:02;12.30;99.90
42989;DHT22;28622;43.716;20.668;2023-04-01T06:47:22;12.40;99.90
42989;DHT22;28622;43.716;20.668;2023-04-01T06:50:11;12.40;99.90
42989;DHT22;28622;43.716;20.668;2023-04-01T06:55:27;12.60;99.90
42989;DHT22;28622;43.716;20.668;2023-04-01T06:57:57;12.70;99.90
42989;DHT22;28622;43.716;20.668;2023-04-01T07:00:29;12.80;99.90
42989;DHT22;28622;43.716;20.668;2023-04-01T07:03:16;12.70;99.90
42989;DHT22;28622;43.716;20.668;2023-04-01T07:05:44;12.70;99.90
42989;DHT22;28622;43.716;20.668;2023-04-01T07:08:13;12.70;99.90
42989;DHT22;28622;43.716;20.668;2023-04-01T07:10:56;12.60;99.90
42989;DHT22;28622;43.716;20.668;2023-04-01T07:16:19;12.60;99.90
42989;DHT22;28622;43.716;20.668;2023-04-01T07:21:49;12.80;99.90
42989;DHT22;28622;43.716;20.668;2023-04-01T07:24:34;12.90;99.90
42989;DHT22;28622;43.716;20.668;2023-04-01T07:27:01;12.90;99.90
42989;DHT22;28622;43.716;20.668;2023-04-01T07:29:27;12.90;99.90
42989;DHT22;28622;43.716;20.668;2023-04-01T07:32:55;12.90;99.90
42989;DHT22;28622;43.716;20.668;2023-04-01T07:40:53;13.40;99.90
42989;DHT22;28622;43.716;20.668;2023-04-01T07:46:23;14.50;99.90
42989;DHT22;28622;43.716;20.668;2023-04-01T07:48:58;14.90;99.90
42989;DHT22;28622;43.716;20.668;2023-04-01T08:06:20;15.50;99.90
42989;DHT22;28622;43.716;20.668;2023-04-01T08:08:56;15.50;99.90
42989;DHT22;28622;43.716;20.668;2023-04-01T08:19:50;15.00;99.90
42989;DHT22;28622;43.716;20.668;2023-04-01T08:22:25;15.00;99.90
42989;DHT22;28622;43.716;20.668;2023-04-01T08:24:54;15.00;99.90
42989;DHT22;28622;43.716;20.668;2023-04-01T08:32:25;15.70;99.90
42989;DHT22;28622;43.716;20.668;2023-04-01T08:37:36;17.00;99.90
42989;DHT22;28622;43.716;20.668;2023-04-01T08:52:10;18.50;99.90
42989;DHT22;28622;43.716;20.668;2023-04-01T09:40:15;17.20;94.50
42989;DHT22;28622;43.716;20.668;2023-04-01T09:59:52;17.00;94.50
42989;DHT22;28622;43.716;20.668;2023-04-01T10:08:16;16.60;99.90
42989;DHT22;28622;43.716;20.668;2023-04-01T10:14:24;16.20;99.90
42989;DHT22;28622;43.716;20.668;2023-04-01T10:22:17;15.90;99.90
42989;DHT22;28622;43.716;20.668;2023-04-01T10:39:27;16.80;99.90
42989;DHT22;28622;43.716;20.668;2023-04-01T10:42:34;16.50;99.90
42989;DHT22;28622;43.716;20.668;2023-04-01T10:48:13;16.30;99.90
42989;DHT22;28622;43.716;20.668;2023-04-01T11:25:02;15.00;99.90
42989;DHT22;28622;43.716;20.668;2023-04-01T11:44:26;14.30;99.90
42989;DHT22;28622;43.716;20.668;2023-04-01T12:03:51;13.60;99.90
42989;DHT22;28622;43.716;20.668;2023-04-01T12:14:54;13.50;99.90
42989;DHT22;28622;43.716;20.668;2023-04-01T12:17:34;13.40;99.90
42989;DHT22;28622;43.716;20.668;2023-04-01T12:50:31;11.70;99.90
42989;DHT22;28622;43.716;20.668;2023-04-01T12:53:38;11.70;99.90
42989;DHT22;28622;43.716;20.668;2023-04-01T12:56:17;11.60;99.90
42989;DHT22;28622;43.716;20.668;2023-04-01T13:16:40;11.40;99.90
42989;DHT22;28622;43.716;20.668;2023-04-01T13:19:17;11.40;99.90
42989;DHT22;28622;43.716;20.668;2023-04-01T13:29:36;11.50;99.90
42989;DHT22;28622;43.716;20.668;2023-04-01T13:35:08;11.30;99.90
42989;DHT22;28622;43.716;20.668;2023-04-01T14:00:16;11.50;99.90
42989;DHT22;28622;43.716;20.668;2023-04-01T14:02:55;11.60;99.90
42989;DHT22;28622;43.716;20.668;2023-04-01T14:08:17;11.30;99.90
42989;DHT22;28622;43.716;20.668;2023-04-01T14:13:17;11.10;99.90
42989;DHT22;28622;43.716;20.668;2023-04-01T14:21:47;11.20;99.90
42989;DHT22;28622;43.716;20.668;2023-04-01T14:48:32;11.90;99.90
42989;DHT22;28622;43.716;20.668;2023-04-01T14:53:52;12.00;99.90
42989;DHT22;28622;43.716;20.668;2023-04-01T14:59:29;12.10;99.90
42989;DHT22;28622;43.716;20.668;2023-04-01T15:04:44;12.40;99.90
42989;DHT22;28622;43.716;20.668;2023-04-01T15:07:21;12.60;99.90
42989;DHT22;28622;43.716;20.668;2023-04-01T15:16:05;12.80;99.90
42989;DHT22;28622;43.716;20.668;2023-04-01T15:27:24;12.50;99.90
42989;DHT22;28622;43.716;20.668;2023-04-01T15:32:48;12.50;99.90
42989;DHT22;28622;43.716;20.668;2023-04-01T15:35:21;12.50;99.90
42989;DHT22;28622;43.716;20.668;2023-04-01T15:37:56;12.40;99.90
42989;DHT22;28622;43.716;20.668;2023-04-01T15:40:32;12.30;99.90
42989;DHT22;28622;43.716;20.668;2023-04-01T15:43:41;12.40;99.90
42989;DHT22;28622;43.716;20.668;2023-04-01T15:46:36;12.40;99.90
42989;DHT22;28622;43.716;20.668;2023-04-01T15:49:51;12.30;99.90
42989;DHT22;28622;43.716;20.668;2023-04-01T15:52:19;12.30;99.90
42989;DHT22;28622;43.716;20.668;2023-04-01T15:55:14;12.30;99.90
42989;DHT22;28622;43.716;20.668;2023-04-01T16:01:04;12.40;99.90
42989;DHT22;28622;43.716;20.668;2023-04-01T16:20:19;12.50;99.90
42989;DHT22;28622;43.716;20.668;2023-04-01T16:25:39;12.30;99.90
42989;DHT22;28622;43.716;20.668;2023-04-01T16:28:16;12.30;99.90
42989;DHT22;28622;43.716;20.668;2023-04-01T16:31:15;12.20;99.90
42989;DHT22;28622;43.716;20.668;2023-04-01T16:36:41;12.00;99.90
42989;DHT22;28622;43.716;20.668;2023-04-01T16:39:36;12.00;99.90
42989;DHT22;28622;43.716;20.668;2023-04-01T16:47:41;11.80;99.90
42989;DHT22;28622;43.716;20.668;2023-04-01T16:50:30;11.80;99.90
42989;DHT22;28622;43.716;20.668;2023-04-01T16:55:51;11.70;99.90
42989;DHT22;28622;43.716;20.668;2023-04-01T16:58:34;11.60;99.90
42989;DHT22;28622;43.716;20.668;2023-04-01T17:01:16;11.60;99.90
42989;DHT22;28622;43.716;20.668;2023-04-01T17:03:46;11.60;99.90
42989;DHT22;28622;43.716;20.668;2023-04-01T17:12:00;11.40;99.90
42989;DHT22;28622;43.716;20.668;2023-04-01T17:15:03;11.40;99.90
42989;DHT22;28622;43.716;20.668;2023-04-01T17:17:33;11.30;99.90
42989;DHT22;28622;43.716;20.668;2023-04-01T17:20:06;11.30;99.90
42989;DHT22;28622;43.716;20.668;2023-04-01T17:22:55;11.30;99.90
42989;DHT22;28622;43.716;20.668;2023-04-01T17:28:24;11.20;99.90
42989;DHT22;28622;43.716;20.668;2023-04-01T17:39:51;10.90;99.90
42989;DHT22;28622;43.716;20.668;2023-04-01T17:45:21;10.80;99.90
42989;DHT22;28622;43.716;20.668;2023-04-01T17:53:19;10.70;99.90
42989;DHT22;28622;43.716;20.668;2023-04-01T17:58:59;10.60;99.90
42989;DHT22;28622;43.716;20.668;2023-04-01T18:01:55;10.50;99.90
42989;DHT22;28622;43.716;20.668;2023-04-01T18:07:12;10.20;99.90
42989;DHT22;28622;43.716;20.668;2023-04-01T18:09:45;10.20;99.90
42989;DHT22;28622;43.716;20.668;2023-04-01T18:12:56;10.20;99.90
42989;DHT22;28622;43.716;20.668;2023-04-01T18:26:31;9.90;99.90
42989;DHT22;28622;43.716;20.668;2023-04-01T18:31:48;9.80;99.90
42989;DHT22;28622;43.716;20.668;2023-04-01T18:34:43;9.70;99.90
42989;DHT22;28622;43.716;20.668;2023-04-01T18:37:39;9.70;99.90
42989;DHT22;28622;43.716;20.668;2023-04-01T18:43:22;9.70;99.90
42989;DHT22;28622;43.716;20.668;2023-04-01T18:51:57;9.50;99.90
42989;DHT22;28622;43.716;20.668;2023-04-01T18:54:32;9.40;99.90
42989;DHT22;28622;43.716;20.668;2023-04-01T18:57:16;9.40;99.90
42989;DHT22;28622;43.716;20.668;2023-04-01T18:59:53;9.30;99.90
42989;DHT22;28622;43.716;20.668;2023-04-01T19:02:43;9.20;99.90
42989;DHT22;28622;43.716;20.668;2023-04-01T19:05:18;9.20;99.90
42989;DHT22;28622;43.716;20.668;2023-04-01T19:07:53;9.10;99.90
42989;DHT22;28622;43.716;20.668;2023-04-01T19:21:42;8.70;99.90
42989;DHT22;28622;43.716;20.668;2023-04-01T19:24:43;8.70;99.90
42989;DHT22;28622;43.716;20.668;2023-04-01T19:27:52;8.60;99.90
42989;DHT22;28622;43.716;20.668;2023-04-01T19:35:59;8.40;99.90
42989;DHT22;28622;43.716;20.668;2023-04-01T19:48:51;8.00;99.90
42989;DHT22;28622;43.716;20.668;2023-04-01T20:00:07;7.80;99.90
42989;DHT22;28622;43.716;20.668;2023-04-01T20:16:48;7.70;99.90
42989;DHT22;28622;43.716;20.668;2023-04-01T20:25:30;7.70;99.90
42989;DHT22;28622;43.716;20.668;2023-04-01T20:36:26;7.80;99.90
42989;DHT22;28622;43.716;20.668;2023-04-01T20:53:35;7.50;99.90
42989;DHT22;28622;43.716;20.668;2023-04-01T21:09:55;7.00;99.90
42989;DHT22;28622;43.716;20.668;2023-04-01T21:15:26;7.00;99.90
42989;DHT22;28622;43.716;20.668;2023-04-01T21:26:29;6.90;99.90
42989;DHT22;28622;43.716;20.668;2023-04-01T21:32:11;6.80;99.90
42989;DHT22;28622;43.716;20.668;2023-04-01T21:37:19;6.90;99.90
42989;DHT22;28622;43.716;20.668;2023-04-01T21:43:15;6.80;99.90
42989;DHT22;28622;43.716;20.668;2023-04-01T21:56:56;6.70;99.90
42989;DHT22;28622;43.716;20.668;2023-04-01T22:11:11;6.70;99.90
42989;DHT22;28622;43.716;20.668;2023-04-01T22:14:19;6.60;99.90
42989;DHT22;28622;43.716;20.668;2023-04-01T22:16:59;6.60;99.90
42989;DHT22;28622;43.716;20.668;2023-04-01T22:19:50;6.60;99.90
42989;DHT22;28622;43.716;20.668;2023-04-01T22:22:22;6.60;99.90
42989;DHT22;28622;43.716;20.668;2023-04-01T22:25:15;6.50;99.90
42989;DHT22;28622;43.716;20.668;2023-04-01T22:27:44;6.50;99.90
42989;DHT22;28622;43.716;20.668;2023-04-01T22:30:24;6.50;99.90
42989;DHT22;28622;43.716;20.668;2023-04-01T22:49:43;6.00;99.90
42989;DHT22;28622;43.716;20.668;2023-04-01T22:54:49;6.00;99.90
42989;DHT22;28622;43.716;20.668;2023-04-01T22:57:38;6.20;99.90
42989;DHT22;28622;43.716;20.668;2023-04-01T23:02:39;6.20;99.90
42989;DHT22;28622;43.716;20.668;2023-04-01T23:05:10;6.30;99.90
42989;DHT22;28622;43.716;20.668;2023-04-01T23:08:21;6.30;99.90
42989;DHT22;28622;43.716;20.668;2023-04-01T23:11:14;6.30;99.90
42989;DHT22;28622;43.716;20.668;2023-04-01T23:13:50;6.20;99.90
42989;DHT22;28622;43.716;20.668;2023-04-01T23:16:25;6.20;99.90
42989;DHT22;28622;43.716;20.668;2023-04-01T23:19:09;6.20;99.90
42989;DHT22;28622;43.716;20.668;2023-04-01T23:26:56;6.00;99.90
42989;DHT22;28622;43.716;20.668;2023-04-01T23:29:24;6.00;99.90
42989;DHT22;28622;43.716;20.668;2023-04-01T23:32:02;5.90;99.90
42989;DHT22;28622;43.716;20.668;2023-04-01T23:34:33;5.90;99.90
42989;DHT22;28622;43.716;20.668;2023-04-01T23:37:11;6.00;99.90
42989;DHT22;28622;43.716;20.668;2023-04-01T23:39:41;5.90;99.90
42989;DHT22;28622;43.716;20.668;2023-04-01T23:42:30;6.00;99.90
42989;DHT22;28622;43.716;20.668;2023-04-01T23:45:02;5.80;99.90
42989;DHT22;28622;43.716;20.668;2023-04-01T23:47:34;5.90;99.90
42989;DHT22;28622;43.716;20.668;2023-04-01T23:50:13;5.90;99.90
42989;DHT22;28622;43.716;20.668;2023-04-01T23:52:43;5.90;99.90
42989;DHT22;28622;43.716;20.668;2023-04-01T23:55:22;5.90;99.90
42989;DHT22;28622;43.716;20.668;2023-04-01T23:58:22;5.90;99.90
